UAL403 KDEN-KLAS
Flight info
| Callsign | UAL403 |
|---|---|
| Flight time | N/A |
| Altitude | 36000 |
| Route | KDEN HBU BCE BERBN KLAS |
| Aircraft | A320/M-SDE2E3FGHIJ1RWXYZ/LB1 |
Departure
| Time | 2026-05-05 04:25 |
|---|---|
| Airport | Denver International Airport (KDEN) |
Arrival
| Time | N/A |
|---|---|
| Airport | Harry Reid International Airport (KLAS) |
| Time | Latitude | Longitude | Altitude | Speed | Heading |
|---|---|---|---|---|---|
| 2026-05-05 03:50 | 39.85944 | -104.66656 | 5388 ft | 0 kts | 181° |
| 2026-05-05 04:04 | 39.85956 | -104.66655 | 5360 ft | 1 kts | 181° |
| 2026-05-05 04:04 | 39.85964 | -104.66655 | 5384 ft | 0 kts | 180° |
| 2026-05-05 04:08 | 39.85949 | -104.66654 | 5359 ft | 0 kts | 175° |
| 2026-05-05 04:08 | 39.85956 | -104.66654 | 5388 ft | 1 kts | 200° |
| 2026-05-05 04:08 | 39.85961 | -104.66652 | 5384 ft | 0 kts | 210° |
| 2026-05-05 04:08 | 39.85961 | -104.66651 | 5384 ft | 0 kts | 209° |
| 2026-05-05 04:09 | 39.85939 | -104.66674 | 5386 ft | 2 kts | 226° |
| 2026-05-05 04:09 | 39.85940 | -104.66672 | 5385 ft | 2 kts | 242° |
| 2026-05-05 04:10 | 39.85942 | -104.66653 | 5385 ft | 0 kts | 306° |
| 2026-05-05 04:10 | 39.85943 | -104.66654 | 5385 ft | 1 kts | 306° |
| 2026-05-05 04:10 | 39.85947 | -104.66662 | 5384 ft | 0 kts | 306° |
| 2026-05-05 04:11 | 39.85949 | -104.66665 | 5384 ft | 8 kts | 306° |
| 2026-05-05 04:11 | 39.85991 | -104.66712 | 5387 ft | 0 kts | 341° |
| 2026-05-05 04:11 | 39.85992 | -104.66713 | 5387 ft | 1 kts | 341° |
| 2026-05-05 04:12 | 39.86024 | -104.66747 | 5386 ft | 8 kts | 306° |
| 2026-05-05 04:12 | 39.86056 | -104.66812 | 5385 ft | 9 kts | 302° |
| 2026-05-05 04:12 | 39.86082 | -104.66885 | 5383 ft | 9 kts | 278° |
| 2026-05-05 04:12 | 39.86086 | -104.66968 | 5382 ft | 9 kts | 271° |
| 2026-05-05 04:13 | 39.86086 | -104.66972 | 5382 ft | 0 kts | 271° |
| 2026-05-05 04:13 | 39.86086 | -104.66981 | 5382 ft | 0 kts | 270° |
| 2026-05-05 04:14 | 39.86081 | -104.67110 | 5381 ft | 18 kts | 264° |
| 2026-05-05 04:14 | 39.86062 | -104.67268 | 5376 ft | 17 kts | 259° |
| 2026-05-05 04:14 | 39.86055 | -104.67414 | 5381 ft | 16 kts | 270° |
| 2026-05-05 04:14 | 39.86060 | -104.67554 | 5378 ft | 15 kts | 272° |
| 2026-05-05 04:15 | 39.86062 | -104.67679 | 5382 ft | 13 kts | 270° |
| 2026-05-05 04:15 | 39.86061 | -104.67783 | 5383 ft | 10 kts | 270° |
| 2026-05-05 04:15 | 39.86062 | -104.67859 | 5384 ft | 7 kts | 270° |
| 2026-05-05 04:15 | 39.86063 | -104.67906 | 5385 ft | 4 kts | 275° |
| 2026-05-05 04:16 | 39.86065 | -104.67923 | 5382 ft | 0 kts | 277° |
| 2026-05-05 04:16 | 39.86065 | -104.68011 | 5387 ft | 17 kts | 269° |
| 2026-05-05 04:17 | 39.86067 | -104.68065 | 5389 ft | 0 kts | 275° |
| 2026-05-05 04:17 | 39.86043 | -104.68187 | 5390 ft | 27 kts | 254° |
| 2026-05-05 04:17 | 39.86028 | -104.68340 | 5391 ft | 4 kts | 253° |
| 2026-05-05 04:18 | 39.86027 | -104.68341 | 5391 ft | 0 kts | 253° |
| 2026-05-05 04:18 | 39.85904 | -104.68393 | 5388 ft | 23 kts | 180° |
| 2026-05-05 04:18 | 39.85796 | -104.68395 | 5385 ft | 23 kts | 181° |
| 2026-05-05 04:18 | 39.85634 | -104.68397 | 5383 ft | 23 kts | 180° |
| 2026-05-05 04:19 | 39.85476 | -104.68395 | 5382 ft | 22 kts | 178° |
| 2026-05-05 04:19 | 39.85331 | -104.68394 | 5382 ft | 20 kts | 179° |
| 2026-05-05 04:19 | 39.85307 | -104.68397 | 5383 ft | 3 kts | 188° |
| 2026-05-05 04:19 | 39.85253 | -104.68406 | 5383 ft | 0 kts | 185° |
| 2026-05-05 04:20 | 39.85246 | -104.68408 | 5383 ft | 9 kts | 191° |
| 2026-05-05 04:20 | 39.85173 | -104.68453 | 5377 ft | 13 kts | 210° |
| 2026-05-05 04:21 | 39.85153 | -104.68475 | 5379 ft | 0 kts | 236° |
| 2026-05-05 04:21 | 39.85124 | -104.68507 | 5375 ft | 10 kts | 219° |
| 2026-05-05 04:21 | 39.85060 | -104.68577 | 5370 ft | 16 kts | 227° |
| 2026-05-05 04:21 | 39.85032 | -104.68726 | 5365 ft | 12 kts | 277° |
| 2026-05-05 04:22 | 39.85032 | -104.68734 | 5366 ft | 1 kts | 279° |
| 2026-05-05 04:22 | 39.85120 | -104.68832 | 5360 ft | 32 kts | 323° |
| 2026-05-05 04:22 | 39.85197 | -104.69209 | 5351 ft | 49 kts | 272° |
| 2026-05-05 04:22 | 39.85203 | -104.69447 | 5345 ft | 0 kts | 270° |
| 2026-05-05 04:23 | 39.85203 | -104.69448 | 5345 ft | 1 kts | 269° |
| 2026-05-05 04:23 | 39.85206 | -104.69595 | 5355 ft | 18 kts | 271° |
| 2026-05-05 04:23 | 39.85264 | -104.69659 | 5356 ft | 11 kts | 2° |
| 2026-05-05 04:24 | 39.85276 | -104.69658 | 5356 ft | 0 kts | 4° |
| 2026-05-05 04:24 | 39.85357 | -104.69652 | 5357 ft | 45 kts | 2° |
| 2026-05-05 04:24 | 39.85959 | -104.69655 | 5369 ft | 131 kts | 0° |
| 2026-05-05 04:25 | 39.88604 | -104.69685 | 5644 ft | 243 kts | 342° |
| 2026-05-05 04:25 | 39.90095 | -104.71078 | 6056 ft | 290 kts | 306° |
| 2026-05-05 04:25 | 39.90775 | -104.73631 | 7155 ft | 311 kts | 274° |
| 2026-05-05 04:25 | 39.90339 | -104.76327 | 8656 ft | 302 kts | 242° |
| 2026-05-05 04:26 | 39.88963 | -104.78264 | 10316 ft | 287 kts | 211° |
| 2026-05-05 04:26 | 39.87098 | -104.78925 | 11852 ft | 277 kts | 180° |
| 2026-05-05 04:26 | 39.85295 | -104.78194 | 13234 ft | 275 kts | 148° |
| 2026-05-05 04:26 | 39.83899 | -104.76520 | 14421 ft | 273 kts | 139° |
| 2026-05-05 04:27 | 39.82278 | -104.75215 | 15028 ft | 283 kts | 168° |
| 2026-05-05 04:27 | 39.80289 | -104.75181 | 15390 ft | 296 kts | 200° |
| 2026-05-05 04:27 | 39.78504 | -104.76531 | 15747 ft | 311 kts | 228° |
| 2026-05-05 04:27 | 39.77366 | -104.78973 | 16124 ft | 329 kts | 254° |
| 2026-05-05 04:28 | 39.77164 | -104.82000 | 16489 ft | 349 kts | 277° |
| 2026-05-05 04:28 | 39.77969 | -104.85068 | 16839 ft | 373 kts | 298° |
| 2026-05-05 04:28 | 39.79611 | -104.87796 | 17181 ft | 396 kts | 314° |
| 2026-05-05 04:28 | 39.81968 | -104.89808 | 17552 ft | 418 kts | 333° |
| 2026-05-05 04:29 | 39.84803 | -104.90919 | 18144 ft | 430 kts | 342° |
| 2026-05-05 04:29 | 39.87570 | -104.92313 | 18756 ft | 426 kts | 326° |
| 2026-05-05 04:29 | 39.89776 | -104.94767 | 19779 ft | 412 kts | 307° |
| 2026-05-05 04:29 | 39.91199 | -104.97928 | 20935 ft | 399 kts | 289° |
| 2026-05-05 04:30 | 39.92047 | -105.01326 | 22255 ft | 389 kts | 284° |
| 2026-05-05 04:30 | 39.92544 | -105.04742 | 23550 ft | 380 kts | 275° |
| 2026-05-05 04:30 | 39.92498 | -105.08129 | 24618 ft | 370 kts | 262° |
| 2026-05-05 04:30 | 39.91847 | -105.11313 | 25761 ft | 360 kts | 249° |
| 2026-05-05 04:31 | 39.90630 | -105.14111 | 26844 ft | 352 kts | 236° |
| 2026-05-05 04:31 | 39.88962 | -105.16438 | 27679 ft | 356 kts | 225° |
| 2026-05-05 04:31 | 39.86939 | -105.18398 | 28005 ft | 369 kts | 219° |
| 2026-05-05 04:31 | 39.84755 | -105.20266 | 28259 ft | 382 kts | 217° |
| 2026-05-05 04:32 | 39.82487 | -105.22174 | 28477 ft | 393 kts | 218° |
| 2026-05-05 04:32 | 39.80251 | -105.24271 | 28686 ft | 400 kts | 224° |
| 2026-05-05 04:32 | 39.78288 | -105.26856 | 28880 ft | 405 kts | 234° |
| 2026-05-05 04:32 | 39.76745 | -105.29884 | 29070 ft | 411 kts | 244° |
| 2026-05-05 04:33 | 39.75595 | -105.33311 | 29273 ft | 418 kts | 252° |
| 2026-05-05 04:33 | 39.74779 | -105.36968 | 29469 ft | 426 kts | 257° |
| 2026-05-05 04:33 | 39.74048 | -105.40728 | 29754 ft | 432 kts | 257° |
| 2026-05-05 04:33 | 39.73310 | -105.44515 | 30258 ft | 432 kts | 257° |
| 2026-05-05 04:34 | 39.72566 | -105.48252 | 31102 ft | 421 kts | 257° |
| 2026-05-05 04:34 | 39.71839 | -105.51848 | 32379 ft | 401 kts | 257° |
| 2026-05-05 04:34 | 39.71147 | -105.55233 | 33963 ft | 374 kts | 258° |
| 2026-05-05 04:34 | 39.70502 | -105.58389 | 35257 ft | 353 kts | 258° |
| 2026-05-05 04:35 | 39.69884 | -105.61421 | 36119 ft | 342 kts | 257° |
| 2026-05-05 04:35 | 39.69282 | -105.64387 | 36586 ft | 339 kts | 257° |
| 2026-05-05 04:35 | 39.68756 | -105.67373 | 36719 ft | 340 kts | 259° |
| 2026-05-05 04:35 | 39.68326 | -105.70381 | 36523 ft | 338 kts | 260° |
| 2026-05-05 04:36 | 39.67918 | -105.73387 | 36260 ft | 339 kts | 260° |
| 2026-05-05 04:36 | 39.67511 | -105.76406 | 36008 ft | 341 kts | 260° |
| 2026-05-05 04:36 | 39.67099 | -105.79448 | 35905 ft | 344 kts | 261° |
| 2026-05-05 04:37 | 39.67016 | -105.80059 | 35902 ft | 344 kts | 261° |
| 2026-05-05 04:39 | 39.66829 | -105.81430 | 35893 ft | 345 kts | 260° |
| 2026-05-05 04:40 | 39.65989 | -105.87586 | 35906 ft | 347 kts | 260° |
| 2026-05-05 04:40 | 39.65142 | -105.93753 | 35903 ft | 347 kts | 260° |
| 2026-05-05 04:41 | 39.64295 | -105.99915 | 35892 ft | 346 kts | 261° |
| 2026-05-05 04:41 | 39.63446 | -106.06073 | 35899 ft | 346 kts | 260° |
| 2026-05-05 04:42 | 39.62598 | -106.12176 | 35906 ft | 346 kts | 260° |
| 2026-05-05 04:42 | 39.61734 | -106.18358 | 35904 ft | 346 kts | 260° |
| 2026-05-05 04:43 | 39.60873 | -106.24489 | 35923 ft | 346 kts | 260° |
| 2026-05-05 04:43 | 39.60014 | -106.30582 | 35909 ft | 346 kts | 260° |
| 2026-05-05 04:44 | 39.59145 | -106.36713 | 35920 ft | 346 kts | 259° |
| 2026-05-05 04:44 | 39.58271 | -106.42859 | 35920 ft | 346 kts | 259° |
| 2026-05-05 04:45 | 39.57396 | -106.49001 | 35934 ft | 346 kts | 259° |
| 2026-05-05 04:45 | 39.56520 | -106.55135 | 35907 ft | 346 kts | 259° |
| 2026-05-05 04:46 | 39.55643 | -106.61239 | 35936 ft | 347 kts | 259° |
| 2026-05-05 04:46 | 39.54441 | -106.67257 | 35931 ft | 347 kts | 251° |
| 2026-05-05 04:47 | 39.52148 | -106.72811 | 35922 ft | 351 kts | 244° |
| 2026-05-05 04:47 | 39.49546 | -106.78188 | 35909 ft | 353 kts | 243° |
| 2026-05-05 04:48 | 39.47542 | -106.82244 | 35919 ft | 353 kts | 243° |
| 2026-05-05 04:48 | 39.45474 | -106.86462 | 35926 ft | 354 kts | 243° |
| 2026-05-05 04:49 | 39.43856 | -106.89787 | 36010 ft | 353 kts | 243° |
| 2026-05-05 04:49 | 39.41209 | -106.95245 | 35975 ft | 354 kts | 243° |
| 2026-05-05 04:50 | 39.38589 | -107.00645 | 35977 ft | 355 kts | 243° |
| 2026-05-05 04:50 | 39.35967 | -107.06039 | 35906 ft | 354 kts | 242° |
| 2026-05-05 04:51 | 39.33344 | -107.11424 | 35910 ft | 354 kts | 242° |
| 2026-05-05 04:51 | 39.30716 | -107.16809 | 35912 ft | 354 kts | 242° |
| 2026-05-05 04:52 | 39.28102 | -107.22157 | 35912 ft | 354 kts | 242° |
| 2026-05-05 04:52 | 39.25464 | -107.27550 | 35927 ft | 356 kts | 242° |
| 2026-05-05 04:53 | 39.22824 | -107.32933 | 35917 ft | 354 kts | 242° |
| 2026-05-05 04:53 | 39.20187 | -107.38296 | 35911 ft | 354 kts | 242° |
| 2026-05-05 04:54 | 39.17552 | -107.43653 | 35907 ft | 354 kts | 242° |
| 2026-05-05 04:54 | 39.14908 | -107.49017 | 35900 ft | 355 kts | 242° |
| 2026-05-05 04:55 | 39.12257 | -107.54387 | 35891 ft | 354 kts | 242° |
| 2026-05-05 04:55 | 39.09612 | -107.59732 | 35897 ft | 353 kts | 242° |
| 2026-05-05 04:56 | 39.06971 | -107.65060 | 35876 ft | 353 kts | 242° |
| 2026-05-05 04:56 | 39.04334 | -107.70376 | 35878 ft | 353 kts | 242° |
| 2026-05-05 04:57 | 39.01700 | -107.75677 | 35844 ft | 354 kts | 241° |
| 2026-05-05 04:57 | 38.99034 | -107.81031 | 35841 ft | 353 kts | 241° |
| 2026-05-05 04:58 | 38.96399 | -107.86313 | 35884 ft | 353 kts | 241° |
| 2026-05-05 04:58 | 38.93746 | -107.91619 | 35890 ft | 353 kts | 241° |
| 2026-05-05 04:59 | 38.91086 | -107.96933 | 35911 ft | 353 kts | 241° |
| 2026-05-05 04:59 | 38.88425 | -108.02240 | 35931 ft | 354 kts | 241° |
| 2026-05-05 05:00 | 38.85763 | -108.07542 | 35939 ft | 353 kts | 241° |
| 2026-05-05 05:00 | 38.83101 | -108.12835 | 35932 ft | 353 kts | 241° |
| 2026-05-05 05:01 | 38.80438 | -108.18120 | 35930 ft | 352 kts | 241° |
| 2026-05-05 05:01 | 38.77789 | -108.23377 | 35908 ft | 350 kts | 241° |
| 2026-05-05 05:02 | 38.75240 | -108.28637 | 35882 ft | 348 kts | 245° |
| 2026-05-05 05:02 | 38.73055 | -108.34184 | 35854 ft | 346 kts | 248° |
| 2026-05-05 05:03 | 38.71370 | -108.39915 | 35826 ft | 347 kts | 251° |
| 2026-05-05 05:03 | 38.69854 | -108.45780 | 35815 ft | 347 kts | 251° |
| 2026-05-05 05:04 | 38.68377 | -108.51657 | 35788 ft | 347 kts | 251° |
| 2026-05-05 05:04 | 38.66890 | -108.57520 | 35799 ft | 346 kts | 251° |
| 2026-05-05 05:05 | 38.65391 | -108.63368 | 35799 ft | 346 kts | 251° |
| 2026-05-05 05:05 | 38.63884 | -108.69221 | 35798 ft | 346 kts | 251° |
| 2026-05-05 05:06 | 38.62629 | -108.74085 | 35798 ft | 347 kts | 251° |
| 2026-05-05 05:06 | 38.61111 | -108.79957 | 35794 ft | 348 kts | 250° |
| 2026-05-05 05:07 | 38.59587 | -108.85836 | 35790 ft | 348 kts | 250° |
| 2026-05-05 05:07 | 38.58058 | -108.91720 | 35795 ft | 348 kts | 250° |
| 2026-05-05 05:08 | 38.56530 | -108.97586 | 35801 ft | 348 kts | 250° |
| 2026-05-05 05:08 | 38.54999 | -109.03456 | 35796 ft | 349 kts | 250° |
| 2026-05-05 05:09 | 38.53458 | -109.09353 | 35795 ft | 351 kts | 250° |
| 2026-05-05 05:09 | 38.51911 | -109.15258 | 35787 ft | 350 kts | 250° |
| 2026-05-05 05:10 | 38.50357 | -109.21168 | 35785 ft | 352 kts | 249° |
| 2026-05-05 05:10 | 38.48791 | -109.27111 | 35782 ft | 351 kts | 249° |
| 2026-05-05 05:11 | 38.47234 | -109.33012 | 35784 ft | 350 kts | 249° |
| 2026-05-05 05:11 | 38.45686 | -109.38863 | 35785 ft | 350 kts | 249° |
| 2026-05-05 05:12 | 38.44123 | -109.44757 | 35786 ft | 351 kts | 249° |
| 2026-05-05 05:12 | 38.42553 | -109.50661 | 35779 ft | 352 kts | 249° |
| 2026-05-05 05:13 | 38.40971 | -109.56594 | 35759 ft | 353 kts | 248° |
| 2026-05-05 05:13 | 38.39387 | -109.62526 | 35764 ft | 353 kts | 249° |
| 2026-05-05 05:14 | 38.37799 | -109.68459 | 35755 ft | 353 kts | 249° |
| 2026-05-05 05:14 | 38.36220 | -109.74344 | 35749 ft | 353 kts | 249° |
| 2026-05-05 05:15 | 38.34625 | -109.80275 | 35754 ft | 353 kts | 248° |
| 2026-05-05 05:15 | 38.33022 | -109.86220 | 35736 ft | 356 kts | 248° |
| 2026-05-05 05:16 | 38.31405 | -109.92203 | 35740 ft | 357 kts | 248° |
| 2026-05-05 05:16 | 38.29788 | -109.98174 | 35733 ft | 357 kts | 248° |
| 2026-05-05 05:17 | 38.28112 | -110.04128 | 35736 ft | 356 kts | 246° |
| 2026-05-05 05:17 | 38.26147 | -110.09913 | 35737 ft | 355 kts | 244° |
| 2026-05-05 05:18 | 38.24150 | -110.15669 | 35742 ft | 356 kts | 244° |
| 2026-05-05 05:18 | 38.22157 | -110.21411 | 35732 ft | 358 kts | 244° |
| 2026-05-05 05:19 | 38.20146 | -110.27200 | 35731 ft | 358 kts | 244° |
| 2026-05-05 05:19 | 38.18131 | -110.32988 | 35734 ft | 358 kts | 244° |
| 2026-05-05 05:20 | 38.16113 | -110.38773 | 35732 ft | 358 kts | 244° |
| 2026-05-05 05:20 | 38.14093 | -110.44558 | 35732 ft | 358 kts | 244° |
| 2026-05-05 05:21 | 38.12063 | -110.50355 | 35738 ft | 359 kts | 243° |
| 2026-05-05 05:21 | 38.10023 | -110.56170 | 35738 ft | 361 kts | 244° |
| 2026-05-05 05:22 | 38.07973 | -110.62001 | 35748 ft | 362 kts | 244° |
| 2026-05-05 05:22 | 38.05921 | -110.67829 | 35744 ft | 362 kts | 244° |
| 2026-05-05 05:23 | 38.03860 | -110.73671 | 35746 ft | 362 kts | 244° |